sensor_id;sensor_type;location;lat;lon;timestamp;pressure;altitude;pressure_sealevel;temperature;humidity
44825;BME280;30542;47.928;2.138;2023-06-26T00:04:24;100602.13;;;27.38;45.99
44825;BME280;30542;47.928;2.138;2023-06-26T00:09:24;100598.63;;;27.37;45.74
44825;BME280;30542;47.928;2.138;2023-06-26T00:14:25;100599.22;;;27.34;45.81
44825;BME280;30542;47.928;2.138;2023-06-26T00:19:26;100600.94;;;27.30;45.59
44825;BME280;30542;47.928;2.138;2023-06-26T00:24:26;100612.25;;;27.32;45.44
44825;BME280;30542;47.928;2.138;2023-06-26T00:29:26;100613.66;;;27.30;45.39
44825;BME280;30542;47.928;2.138;2023-06-26T00:34:27;100619.38;;;27.28;45.03
44825;BME280;30542;47.928;2.138;2023-06-26T00:39:27;100618.88;;;27.26;45.37
44825;BME280;30542;47.928;2.138;2023-06-26T00:44:27;100623.78;;;27.24;45.20
44825;BME280;30542;47.928;2.138;2023-06-26T00:49:28;100623.78;;;27.24;44.91
44825;BME280;30542;47.928;2.138;2023-06-26T00:54:28;100629.50;;;27.22;45.21
44825;BME280;30542;47.928;2.138;2023-06-26T00:59:29;100634.41;;;27.20;44.74
44825;BME280;30542;47.928;2.138;2023-06-26T01:04:31;100631.81;;;27.15;44.78
44825;BME280;30542;47.928;2.138;2023-06-26T01:09:34;100645.06;;;27.17;44.51
44825;BME280;30542;47.928;2.138;2023-06-26T01:14:34;100647.75;;;27.17;44.51
44825;BME280;30542;47.928;2.138;2023-06-26T01:19:36;100650.75;;;27.15;44.64
44825;BME280;30542;47.928;2.138;2023-06-26T01:24:38;100655.38;;;27.15;44.46
44825;BME280;30542;47.928;2.138;2023-06-26T01:29:40;100652.19;;;27.13;44.42
44825;BME280;30542;47.928;2.138;2023-06-26T01:34:43;100667.09;;;27.10;44.53
44825;BME280;30542;47.928;2.138;2023-06-26T01:39:44;100666.59;;;27.08;44.33
44825;BME280;30542;47.928;2.138;2023-06-26T01:44:46;100674.50;;;27.05;43.70
44825;BME280;30542;47.928;2.138;2023-06-26T01:50:34;100682.88;;;27.03;43.58
44825;BME280;30542;47.928;2.138;2023-06-26T01:55:30;100688.94;;;27.00;43.28
44825;BME280;30542;47.928;2.138;2023-06-26T02:00:33;100683.31;;;26.96;42.96
44825;BME280;30542;47.928;2.138;2023-06-26T02:05:34;100701.72;;;26.94;43.19
44825;BME280;30542;47.928;2.138;2023-06-26T02:10:35;100711.53;;;26.90;43.08
44825;BME280;30542;47.928;2.138;2023-06-26T02:15:35;100711.06;;;26.88;42.72
44825;BME280;30542;47.928;2.138;2023-06-26T02:20:36;100722.47;;;26.85;42.47
44825;BME280;30542;47.928;2.138;2023-06-26T02:25:36;100721.94;;;26.83;42.42
44825;BME280;30542;47.928;2.138;2023-06-26T02:30:36;100723.38;;;26.81;42.68
44825;BME280;30542;47.928;2.138;2023-06-26T02:35:37;100749.06;;;26.78;42.57
44825;BME280;30542;47.928;2.138;2023-06-26T02:40:37;100741.59;;;26.75;42.25
44825;BME280;30542;47.928;2.138;2023-06-26T02:45:37;100729.56;;;26.67;42.27
44825;BME280;30542;47.928;2.138;2023-06-26T02:50:38;100754.00;;;26.76;42.19
44825;BME280;30542;47.928;2.138;2023-06-26T02:55:38;100754.59;;;26.73;42.19
44825;BME280;30542;47.928;2.138;2023-06-26T03:00:38;100763.28;;;26.70;42.09
44825;BME280;30542;47.928;2.138;2023-06-26T03:05:41;100772.00;;;26.67;42.09
44825;BME280;30542;47.928;2.138;2023-06-26T03:10:41;100771.78;;;26.63;41.75
44825;BME280;30542;47.928;2.138;2023-06-26T03:15:42;100780.19;;;26.62;41.98
44825;BME280;30542;47.928;2.138;2023-06-26T03:20:42;100787.78;;;26.60;41.70
44825;BME280;30542;47.928;2.138;2023-06-26T03:25:42;100790.78;;;26.58;41.70
44825;BME280;30542;47.928;2.138;2023-06-26T03:30:44;100789.97;;;26.58;41.87
44825;BME280;30542;47.928;2.138;2023-06-26T03:35:44;100803.00;;;26.56;41.35
44825;BME280;30542;47.928;2.138;2023-06-26T03:40:45;100809.50;;;26.55;41.24
44825;BME280;30542;47.928;2.138;2023-06-26T03:45:45;100808.19;;;26.52;41.00
44825;BME280;30542;47.928;2.138;2023-06-26T03:50:46;100810.09;;;26.51;41.08
44825;BME280;30542;47.928;2.138;2023-06-26T03:55:47;100822.00;;;26.50;41.39
44825;BME280;30542;47.928;2.138;2023-06-26T04:00:47;100830.38;;;26.49;41.43
44825;BME280;30542;47.928;2.138;2023-06-26T04:05:47;100833.66;;;26.46;41.25
44825;BME280;30542;47.928;2.138;2023-06-26T04:10:48;100825.03;;;26.44;41.25
44825;BME280;30542;47.928;2.138;2023-06-26T04:15:48;100840.44;;;26.43;41.05
44825;BME280;30542;47.928;2.138;2023-06-26T04:21:11;100852.63;;;26.41;41.08
44825;BME280;30542;47.928;2.138;2023-06-26T04:26:12;100860.25;;;26.39;40.86
44825;BME280;30542;47.928;2.138;2023-06-26T04:31:15;100857.00;;;26.37;40.65
44825;BME280;30542;47.928;2.138;2023-06-26T04:36:15;100851.13;;;26.35;40.78
44825;BME280;30542;47.928;2.138;2023-06-26T04:41:16;100854.91;;;26.34;40.46
44825;BME280;30542;47.928;2.138;2023-06-26T04:46:16;100856.31;;;26.31;40.38
44825;BME280;30542;47.928;2.138;2023-06-26T04:51:17;100858.47;;;26.29;40.30
44825;BME280;30542;47.928;2.138;2023-06-26T04:56:21;100869.88;;;26.26;40.51
44825;BME280;30542;47.928;2.138;2023-06-26T05:01:21;100873.66;;;26.25;40.36
44825;BME280;30542;47.928;2.138;2023-06-26T05:06:22;100876.66;;;26.23;40.16
44825;BME280;30542;47.928;2.138;2023-06-26T05:11:24;100875.06;;;26.22;40.42
44825;BME280;30542;47.928;2.138;2023-06-26T05:16:24;100877.25;;;26.20;40.00
44825;BME280;30542;47.928;2.138;2023-06-26T05:21:25;100884.53;;;26.20;40.00
44825;BME280;30542;47.928;2.138;2023-06-26T05:26:26;100884.84;;;26.18;40.13
44825;BME280;30542;47.928;2.138;2023-06-26T05:31:27;100890.03;;;26.15;40.08
44825;BME280;30542;47.928;2.138;2023-06-26T05:36:27;100894.09;;;26.12;40.14
44825;BME280;30542;47.928;2.138;2023-06-26T05:41:29;100898.69;;;26.12;40.20
44825;BME280;30542;47.928;2.138;2023-06-26T05:46:29;100903.59;;;26.10;39.97
44825;BME280;30542;47.928;2.138;2023-06-26T05:51:30;100900.16;;;26.04;39.76
44825;BME280;30542;47.928;2.138;2023-06-26T05:56:30;100906.16;;;26.01;39.65
44825;BME280;30542;47.928;2.138;2023-06-26T06:01:31;100918.88;;;25.95;40.30
44825;BME280;30542;47.928;2.138;2023-06-26T06:06:33;100921.97;;;25.89;40.20
44825;BME280;30542;47.928;2.138;2023-06-26T06:11:33;100919.59;;;25.82;40.26
44825;BME280;30542;47.928;2.138;2023-06-26T06:16:34;100922.44;;;25.67;40.40
44825;BME280;30542;47.928;2.138;2023-06-26T06:21:34;100916.75;;;25.44;41.11
44825;BME280;30542;47.928;2.138;2023-06-26T06:26:35;100921.75;;;25.32;41.33
44825;BME280;30542;47.928;2.138;2023-06-26T06:31:35;100938.53;;;25.24;41.83
44825;BME280;30542;47.928;2.138;2023-06-26T06:36:36;100927.00;;;25.18;41.94
44825;BME280;30542;47.928;2.138;2023-06-26T06:41:36;100928.94;;;25.08;42.06
44825;BME280;30542;47.928;2.138;2023-06-26T06:46:36;100939.78;;;25.02;42.07
44825;BME280;30542;47.928;2.138;2023-06-26T06:51:37;100940.06;;;25.01;42.09
44825;BME280;30542;47.928;2.138;2023-06-26T06:56:37;100942.00;;;24.95;41.92
44825;BME280;30542;47.928;2.138;2023-06-26T07:01:39;100945.28;;;24.87;41.97
44825;BME280;30542;47.928;2.138;2023-06-26T07:06:40;100944.78;;;24.85;42.10
44825;BME280;30542;47.928;2.138;2023-06-26T07:11:40;100950.72;;;24.82;42.46
44825;BME280;30542;47.928;2.138;2023-06-26T07:16:40;100957.75;;;24.78;44.61
44825;BME280;30542;47.928;2.138;2023-06-26T07:21:41;100964.28;;;24.67;44.87
44825;BME280;30542;47.928;2.138;2023-06-26T07:26:42;100959.34;;;24.40;43.23
44825;BME280;30542;47.928;2.138;2023-06-26T07:31:43;100963.34;;;24.42;43.00
44825;BME280;30542;47.928;2.138;2023-06-26T07:36:45;100976.25;;;24.50;42.89
44825;BME280;30542;47.928;2.138;2023-06-26T07:41:45;100979.72;;;24.56;42.42
44825;BME280;30542;47.928;2.138;2023-06-26T07:46:45;100983.47;;;24.55;41.96
44825;BME280;30542;47.928;2.138;2023-06-26T07:51:46;100974.59;;;24.54;42.12
44825;BME280;30542;47.928;2.138;2023-06-26T07:57:00;100989.13;;;24.59;42.05
44825;BME280;30542;47.928;2.138;2023-06-26T08:02:01;100983.78;;;24.53;41.63
44825;BME280;30542;47.928;2.138;2023-06-26T08:07:02;100999.09;;;24.58;41.26
44825;BME280;30542;47.928;2.138;2023-06-26T08:12:04;100995.09;;;24.55;41.67
44825;BME280;30542;47.928;2.138;2023-06-26T08:17:04;100996.94;;;24.60;41.72
44825;BME280;30542;47.928;2.138;2023-06-26T08:22:05;100996.91;;;24.65;41.64
44825;BME280;30542;47.928;2.138;2023-06-26T08:27:05;100994.47;;;24.69;40.94
44825;BME280;30542;47.928;2.138;2023-06-26T08:32:07;100995.00;;;24.66;41.02
44825;BME280;30542;47.928;2.138;2023-06-26T08:37:07;100998.78;;;24.65;40.76
44825;BME280;30542;47.928;2.138;2023-06-26T08:42:09;100987.69;;;24.71;40.52
44825;BME280;30542;47.928;2.138;2023-06-26T08:47:11;100989.34;;;24.67;40.28
44825;BME280;30542;47.928;2.138;2023-06-26T08:52:24;100978.84;;;24.66;40.24
44825;BME280;30542;47.928;2.138;2023-06-26T08:57:30;100995.50;;;24.73;40.33
44825;BME280;30542;47.928;2.138;2023-06-26T09:02:31;100995.75;;;24.76;39.92
44825;BME280;30542;47.928;2.138;2023-06-26T09:07:32;100993.84;;;24.82;40.09
44825;BME280;30542;47.928;2.138;2023-06-26T09:12:32;100995.97;;;24.85;40.34
44825;BME280;30542;47.928;2.138;2023-06-26T09:17:36;100994.31;;;24.89;40.16
44825;BME280;30542;47.928;2.138;2023-06-26T09:22:43;100993.75;;;24.92;40.41
44825;BME280;30542;47.928;2.138;2023-06-26T09:27:47;100999.13;;;24.97;41.38
44825;BME280;30542;47.928;2.138;2023-06-26T09:32:48;100998.28;;;25.02;41.25
44825;BME280;30542;47.928;2.138;2023-06-26T09:37:50;100995.03;;;25.05;40.97
44825;BME280;30542;47.928;2.138;2023-06-26T09:42:51;100994.78;;;25.01;40.72
44825;BME280;30542;47.928;2.138;2023-06-26T09:47:51;101004.47;;;25.02;40.18
44825;BME280;30542;47.928;2.138;2023-06-26T09:52:52;100999.06;;;25.02;39.61
44825;BME280;30542;47.928;2.138;2023-06-26T09:57:54;100997.97;;;25.03;39.23
44825;BME280;30542;47.928;2.138;2023-06-26T10:02:56;101001.78;;;25.02;39.11
44825;BME280;30542;47.928;2.138;2023-06-26T10:07:57;101002.56;;;25.03;38.59
44825;BME280;30542;47.928;2.138;2023-06-26T10:13:01;101003.66;;;25.02;38.38
44825;BME280;30542;47.928;2.138;2023-06-26T10:18:02;101004.47;;;25.02;38.59
44825;BME280;30542;47.928;2.138;2023-06-26T10:23:04;100990.19;;;25.02;38.56
44825;BME280;30542;47.928;2.138;2023-06-26T10:28:07;100998.78;;;25.04;38.29
44825;BME280;30542;47.928;2.138;2023-06-26T10:33:09;100978.06;;;24.99;38.29
44825;BME280;30542;47.928;2.138;2023-06-26T10:38:09;100997.72;;;25.05;38.18
44825;BME280;30542;47.928;2.138;2023-06-26T10:43:11;100992.34;;;25.05;37.81
44825;BME280;30542;47.928;2.138;2023-06-26T10:48:15;101001.72;;;25.08;37.75
44825;BME280;30542;47.928;2.138;2023-06-26T10:58:28;101000.94;;;25.07;37.46
44825;BME280;30542;47.928;2.138;2023-06-26T11:03:31;101002.53;;;25.08;37.53
44825;BME280;30542;47.928;2.138;2023-06-26T11:08:48;101000.66;;;25.09;37.53
44825;BME280;30542;47.928;2.138;2023-06-26T11:13:49;101000.09;;;25.12;37.24
44825;BME280;30542;47.928;2.138;2023-06-26T11:18:50;101003.91;;;25.11;37.00
44825;BME280;30542;47.928;2.138;2023-06-26T11:23:51;100999.03;;;25.13;36.72
44825;BME280;30542;47.928;2.138;2023-06-26T11:28:55;100983.72;;;25.03;36.52
44825;BME280;30542;47.928;2.138;2023-06-26T11:33:56;101001.19;;;25.11;36.53
44825;BME280;30542;47.928;2.138;2023-06-26T11:38:58;100992.03;;;25.12;36.35
44825;BME280;30542;47.928;2.138;2023-06-26T11:44:06;101002.25;;;25.15;36.57
44825;BME280;30542;47.928;2.138;2023-06-26T11:49:07;100997.94;;;25.14;36.26
44825;BME280;30542;47.928;2.138;2023-06-26T11:54:07;101004.16;;;25.14;36.10
44825;BME280;30542;47.928;2.138;2023-06-26T11:59:11;101005.75;;;25.15;35.96
44825;BME280;30542;47.928;2.138;2023-06-26T12:04:14;101011.44;;;25.14;35.77
44825;BME280;30542;47.928;2.138;2023-06-26T12:09:16;101011.44;;;25.14;35.77
44825;BME280;30542;47.928;2.138;2023-06-26T12:14:19;101003.84;;;25.16;35.97
44825;BME280;30542;47.928;2.138;2023-06-26T12:19:24;101001.97;;;25.16;35.73
44825;BME280;30542;47.928;2.138;2023-06-26T12:24:26;100993.06;;;25.16;35.87
44825;BME280;30542;47.928;2.138;2023-06-26T12:29:33;100988.22;;;25.18;36.38
44825;BME280;30542;47.928;2.138;2023-06-26T12:34:35;100986.31;;;25.18;35.92
44825;BME280;30542;47.928;2.138;2023-06-26T12:39:52;100979.03;;;25.19;35.96
44825;BME280;30542;47.928;2.138;2023-06-26T12:44:53;100977.94;;;25.20;35.91
44825;BME280;30542;47.928;2.138;2023-06-26T12:49:56;100977.94;;;25.20;35.79
44825;BME280;30542;47.928;2.138;2023-06-26T12:54:57;100981.44;;;25.20;35.72
44825;BME280;30542;47.928;2.138;2023-06-26T12:59:58;100979.84;;;25.19;35.49
44825;BME280;30542;47.928;2.138;2023-06-26T13:04:59;100979.03;;;25.19;35.57
44825;BME280;30542;47.928;2.138;2023-06-26T13:10:00;100971.75;;;25.19;35.42
44825;BME280;30542;47.928;2.138;2023-06-26T13:15:00;100975.25;;;25.20;35.50
44825;BME280;30542;47.928;2.138;2023-06-26T13:20:00;100968.75;;;25.21;35.63
44825;BME280;30542;47.928;2.138;2023-06-26T13:25:00;100960.41;;;25.22;35.48
44825;BME280;30542;47.928;2.138;2023-06-26T13:30:01;100953.63;;;25.25;35.44
44825;BME280;30542;47.928;2.138;2023-06-26T13:35:02;100954.97;;;25.27;35.72
44825;BME280;30542;47.928;2.138;2023-06-26T13:40:04;100960.84;;;25.29;35.54
44825;BME280;30542;47.928;2.138;2023-06-26T13:45:07;100947.63;;;25.33;35.53
44825;BME280;30542;47.928;2.138;2023-06-26T13:50:09;100947.66;;;25.28;35.40
44825;BME280;30542;47.928;2.138;2023-06-26T13:55:09;100943.84;;;25.34;35.16
44825;BME280;30542;47.928;2.138;2023-06-26T14:00:11;100950.84;;;25.35;35.25
44825;BME280;30542;47.928;2.138;2023-06-26T14:05:12;100955.69;;;25.33;35.42
44825;BME280;30542;47.928;2.138;2023-06-26T14:10:13;100962.72;;;25.34;35.11
44825;BME280;30542;47.928;2.138;2023-06-26T14:15:13;100962.72;;;25.34;35.12
44825;BME280;30542;47.928;2.138;2023-06-26T14:20:14;100946.06;;;25.27;35.10
44825;BME280;30542;47.928;2.138;2023-06-26T14:25:15;100962.72;;;25.34;35.00
44825;BME280;30542;47.928;2.138;2023-06-26T14:30:16;100959.19;;;25.34;34.88
44825;BME280;30542;47.928;2.138;2023-06-26T14:35:16;100934.97;;;25.28;34.97
44825;BME280;30542;47.928;2.138;2023-06-26T14:40:17;100961.34;;;25.37;34.37
44825;BME280;30542;47.928;2.138;2023-06-26T14:45:17;100940.56;;;25.37;34.91
44825;BME280;30542;47.928;2.138;2023-06-26T14:50:18;100943.00;;;25.39;34.85
44825;BME280;30542;47.928;2.138;2023-06-26T14:55:19;100933.00;;;25.39;34.42
44825;BME280;30542;47.928;2.138;2023-06-26T15:00:19;100929.22;;;25.40;34.68
44825;BME280;30542;47.928;2.138;2023-06-26T15:05:20;100924.84;;;25.44;34.37
44825;BME280;30542;47.928;2.138;2023-06-26T15:10:22;100923.50;;;25.47;34.01
44825;BME280;30542;47.928;2.138;2023-06-26T15:15:23;100927.78;;;25.48;34.20
44825;BME280;30542;47.928;2.138;2023-06-26T15:20:24;100933.47;;;25.46;33.83
44825;BME280;30542;47.928;2.138;2023-06-26T15:25:24;100925.38;;;25.46;33.78
44825;BME280;30542;47.928;2.138;2023-06-26T15:30:24;100910.28;;;25.45;33.79
44825;BME280;30542;47.928;2.138;2023-06-26T15:35:25;100905.19;;;25.44;33.75
44825;BME280;30542;47.928;2.138;2023-06-26T15:40:26;100912.91;;;25.50;33.42
44825;BME280;30542;47.928;2.138;2023-06-26T15:45:27;100908.34;;;25.51;33.98
44825;BME280;30542;47.928;2.138;2023-06-26T15:50:27;100904.00;;;25.50;33.87
44825;BME280;30542;47.928;2.138;2023-06-26T15:55:28;100913.16;;;25.54;33.75
44825;BME280;30542;47.928;2.138;2023-06-26T16:00:28;100897.75;;;25.54;34.03
44825;BME280;30542;47.928;2.138;2023-06-26T16:05:28;100899.09;;;25.57;33.76
44825;BME280;30542;47.928;2.138;2023-06-26T16:10:29;100894.50;;;25.58;33.92
44825;BME280;30542;47.928;2.138;2023-06-26T16:15:29;100898.22;;;25.62;34.13
44825;BME280;30542;47.928;2.138;2023-06-26T16:20:30;100902.13;;;25.74;34.27
44825;BME280;30542;47.928;2.138;2023-06-26T16:25:30;100891.00;;;25.81;34.13
44825;BME280;30542;47.928;2.138;2023-06-26T16:30:30;100889.28;;;25.90;33.98
44825;BME280;30542;47.928;2.138;2023-06-26T16:35:31;100883.31;;;25.93;33.97
44825;BME280;30542;47.928;2.138;2023-06-26T16:40:34;100885.44;;;25.96;33.92
44825;BME280;30542;47.928;2.138;2023-06-26T16:45:34;100882.13;;;25.99;33.75
44825;BME280;30542;47.928;2.138;2023-06-26T16:50:35;100884.56;;;26.01;33.65
44825;BME280;30542;47.928;2.138;2023-06-26T16:55:35;100887.47;;;26.05;33.66
44825;BME280;30542;47.928;2.138;2023-06-26T17:00:35;100884.47;;;26.06;33.77
44825;BME280;30542;47.928;2.138;2023-06-26T17:05:38;100888.78;;;26.07;33.79
44825;BME280;30542;47.928;2.138;2023-06-26T17:10:38;100892.81;;;26.10;33.83
44825;BME280;30542;47.928;2.138;2023-06-26T17:15:39;100898.69;;;26.12;33.83
44825;BME280;30542;47.928;2.138;2023-06-26T17:20:39;100891.69;;;26.11;33.44
44825;BME280;30542;47.928;2.138;2023-06-26T17:25:39;100894.09;;;26.12;33.56
44825;BME280;30542;47.928;2.138;2023-06-26T17:30:40;100903.81;;;26.13;33.50
44825;BME280;30542;47.928;2.138;2023-06-26T17:35:42;100898.44;;;26.13;33.51
44825;BME280;30542;47.928;2.138;2023-06-26T17:40:42;100908.44;;;26.13;33.58
44825;BME280;30542;47.928;2.138;2023-06-26T17:45:42;100906.78;;;26.12;33.28
44825;BME280;30542;47.928;2.138;2023-06-26T17:50:43;100907.91;;;26.11;33.20
44825;BME280;30542;47.928;2.138;2023-06-26T17:55:43;100913.59;;;26.09;32.86
44825;BME280;30542;47.928;2.138;2023-06-26T18:00:43;100915.50;;;26.09;33.20
44825;BME280;30542;47.928;2.138;2023-06-26T18:05:44;100914.41;;;26.10;33.37
44825;BME280;30542;47.928;2.138;2023-06-26T18:10:44;100920.91;;;26.09;33.13
44825;BME280;30542;47.928;2.138;2023-06-26T18:15:46;100931.16;;;26.07;33.31
44825;BME280;30542;47.928;2.138;2023-06-26T18:20:49;100930.38;;;26.06;32.77
44825;BME280;30542;47.928;2.138;2023-06-26T18:25:49;100938.47;;;26.06;32.98
44825;BME280;30542;47.928;2.138;2023-06-26T18:30:50;100935.53;;;26.02;32.72
44825;BME280;30542;47.928;2.138;2023-06-26T18:35:50;100954.97;;;26.05;32.47
44825;BME280;30542;47.928;2.138;2023-06-26T18:40:50;100954.44;;;26.02;32.95
44825;BME280;30542;47.928;2.138;2023-06-26T18:45:52;100954.44;;;26.02;32.78
44825;BME280;30542;47.928;2.138;2023-06-26T18:50:52;100964.44;;;26.02;32.95
44825;BME280;30542;47.928;2.138;2023-06-26T18:55:52;100962.53;;;26.02;32.71
44825;BME280;30542;47.928;2.138;2023-06-26T19:00:53;100944.63;;;25.88;32.62
44825;BME280;30542;47.928;2.138;2023-06-26T19:05:53;100960.72;;;25.98;32.97
44825;BME280;30542;47.928;2.138;2023-06-26T19:10:54;100976.38;;;25.96;33.05
44825;BME280;30542;47.928;2.138;2023-06-26T19:15:54;100982.88;;;25.95;32.85
44825;BME280;30542;47.928;2.138;2023-06-26T19:20:54;100977.53;;;25.90;32.92
44825;BME280;30542;47.928;2.138;2023-06-26T19:25:55;100977.84;;;25.88;33.02
44825;BME280;30542;47.928;2.138;2023-06-26T19:30:56;100980.00;;;25.86;32.97
44825;BME280;30542;47.928;2.138;2023-06-26T19:35:56;100985.69;;;25.85;33.07
44825;BME280;30542;47.928;2.138;2023-06-26T19:40:57;100992.47;;;25.82;33.11
44825;BME280;30542;47.928;2.138;2023-06-26T19:45:57;100990.88;;;25.81;32.77
44825;BME280;30542;47.928;2.138;2023-06-26T19:50:57;100986.56;;;25.80;33.19
44825;BME280;30542;47.928;2.138;2023-06-26T19:55:58;100994.13;;;25.78;33.12
44825;BME280;30542;47.928;2.138;2023-06-26T20:00:58;101001.44;;;25.72;33.47
44825;BME280;30542;47.928;2.138;2023-06-26T20:05:59;101012.47;;;25.76;33.26
44825;BME280;30542;47.928;2.138;2023-06-26T20:10:59;101011.16;;;25.73;33.27
44825;BME280;30542;47.928;2.138;2023-06-26T20:15:59;101022.75;;;25.74;33.58
44825;BME280;30542;47.928;2.138;2023-06-26T20:21:00;101034.63;;;25.73;33.27
44825;BME280;30542;47.928;2.138;2023-06-26T20:26:00;101028.69;;;25.71;33.56
44825;BME280;30542;47.928;2.138;2023-06-26T20:31:01;101037.09;;;25.69;33.65
44825;BME280;30542;47.928;2.138;2023-06-26T20:36:01;101046.00;;;25.70;33.66
44825;BME280;30542;47.928;2.138;2023-06-26T20:41:02;101042.78;;;25.68;33.68
44825;BME280;30542;47.928;2.138;2023-06-26T20:46:02;101053.56;;;25.68;33.94
44825;BME280;30542;47.928;2.138;2023-06-26T20:51:03;101062.47;;;25.68;33.87
44825;BME280;30542;47.928;2.138;2023-06-26T20:56:04;101064.88;;;25.70;33.92
44825;BME280;30542;47.928;2.138;2023-06-26T21:01:04;101055.97;;;25.69;33.78
44825;BME280;30542;47.928;2.138;2023-06-26T21:06:04;101049.78;;;25.69;34.02
44825;BME280;30542;47.928;2.138;2023-06-26T21:11:05;101062.19;;;25.70;34.18
44825;BME280;30542;47.928;2.138;2023-06-26T21:16:05;101067.31;;;25.71;34.19
44825;BME280;30542;47.928;2.138;2023-06-26T21:21:05;101062.72;;;25.72;34.38
44825;BME280;30542;47.928;2.138;2023-06-26T21:26:06;101067.00;;;25.73;34.78
44825;BME280;30542;47.928;2.138;2023-06-26T21:31:06;101074.31;;;25.72;34.87
44825;BME280;30542;47.928;2.138;2023-06-26T21:36:07;101072.41;;;25.73;34.73
44825;BME280;30542;47.928;2.138;2023-06-26T21:41:07;101077.00;;;25.72;35.02
44825;BME280;30542;47.928;2.138;2023-06-26T21:46:07;101075.09;;;25.73;34.96
44825;BME280;30542;47.928;2.138;2023-06-26T21:51:08;101074.00;;;25.74;35.12
44825;BME280;30542;47.928;2.138;2023-06-26T21:56:08;101081.84;;;25.75;34.99
44825;BME280;30542;47.928;2.138;2023-06-26T22:01:08;101073.47;;;25.77;35.13
44825;BME280;30542;47.928;2.138;2023-06-26T22:06:09;101084.28;;;25.77;35.23
44825;BME280;30542;47.928;2.138;2023-06-26T22:11:09;101074.56;;;25.71;35.08
44825;BME280;30542;47.928;2.138;2023-06-26T22:16:09;101088.03;;;25.76;35.31
44825;BME280;30542;47.928;2.138;2023-06-26T22:21:10;101091.00;;;25.74;35.06
44825;BME280;30542;47.928;2.138;2023-06-26T22:26:10;101092.63;;;25.75;35.28
44825;BME280;30542;47.928;2.138;2023-06-26T22:31:10;101091.34;;;25.68;35.34
44825;BME280;30542;47.928;2.138;2023-06-26T22:36:11;101101.53;;;25.76;35.35
44825;BME280;30542;47.928;2.138;2023-06-26T22:41:11;101102.59;;;25.75;35.21
44825;BME280;30542;47.928;2.138;2023-06-26T22:46:11;101098.28;;;25.74;35.25
44825;BME280;30542;47.928;2.138;2023-06-26T22:51:12;101094.81;;;25.73;35.38
44825;BME280;30542;47.928;2.138;2023-06-26T22:56:12;101096.41;;;25.74;35.40
44825;BME280;30542;47.928;2.138;2023-06-26T23:01:12;101089.44;;;25.68;35.50
44825;BME280;30542;47.928;2.138;2023-06-26T23:06:14;101102.09;;;25.73;35.72
44825;BME280;30542;47.928;2.138;2023-06-26T23:11:21;101104.00;;;25.72;35.74
44825;BME280;30542;47.928;2.138;2023-06-26T23:16:21;101105.34;;;25.70;35.48
44825;BME280;30542;47.928;2.138;2023-06-26T23:21:22;101104.53;;;25.69;35.66
44825;BME280;30542;47.928;2.138;2023-06-26T23:26:23;101107.25;;;25.69;35.54
44825;BME280;30542;47.928;2.138;2023-06-26T23:31:23;101099.44;;;25.68;35.44
44825;BME280;30542;47.928;2.138;2023-06-26T23:36:25;101095.94;;;25.67;35.56
44825;BME280;30542;47.928;2.138;2023-06-26T23:41:28;101096.75;;;25.68;35.64
44825;BME280;30542;47.928;2.138;2023-06-26T23:46:29;101091.91;;;25.65;35.82
44825;BME280;30542;47.928;2.138;2023-06-26T23:51:29;101099.44;;;25.68;35.68
44825;BME280;30542;47.928;2.138;2023-06-26T23:56:30;101096.75;;;25.68;35.63
